KLSV/LSV METAR and TAF weather

Enter ICAO airport designator
Station Type Date Time Source
KLSV METAR 2021/05/11 15:58 UTC NOAA

KLSV 111558Z AUTO 03019G25KT 10SM CLR 24/M07 A2999 RMK AO2 PK WND 03027/24 SLP135 T02361075 $


Station Type Date Time Source
KLSV Decoded METAR 2021/05/11 15:58 UTC NOAA

Nellis Air Force Base, NV, United States (KLSV) 36-14N 115-02W
May 11, 2021 - 11:58 AM EDT / 2021.05.11 1558 UTC
Wind: from the NNE (030 degrees) at 22 MPH (19 KT) gusting to 29 MPH (25 KT):0
Visibility: 10 mile(s):0
Sky conditions: clear
Temperature: 74.5 F (23.6 C)
Dew Point: 18.5 F (-7.5 C)
Relative Humidity: 11%
Pressure (altimeter): 29.99 in. Hg (1015 hPa)
ob: KLSV 111558Z AUTO 03019G25KT 10SM CLR 24/M07 A2999 RMK AO2 PK WND 03027/24 SLP135 T02361075
cycle: 16

Station Type Date Time Source
KLSV TAF 2021/05/11 15:52 UTC NOAA

TAF KLSV 111500Z 1115/1221 03012G18KT 9999 SKC QNH2991INS
TEMPO 1113/1118 03015G25KT 520009
BECMG 1120/1121 05008KT 9999 SKC QNH2982INS
BECMG 1202/1203 VRB06KT 9999 SKC QNH2983INS
BECMG 1211/1212 02010G15KT 9999 SKC QNH2997INS TX31/1123Z TN19/1214Z

Example: see airport list